Overview Statistics Trail Chart Weather Telemetry Raw packets
 

This is the latest recevied weather packets stored in our database for station/object KK4MOR. If no packets are shown the sender has not sent any weather packets the latest 10 day(s).

<< 10 11 12 13 14 15 16 >>
Time Temp. Humidity Pressure Rain* Wind** Luminosity Snow
1788358544 30° C 74% 1017.2 hPa 0 mm - - -
1788357639 28.33° C 80% 1017 hPa 0 mm - - -
1788356735 26.11° C 85% 1017 hPa 0 mm - - -
1788355831 25° C 92% 1017 hPa 0 mm - - -
1788354928 23.33° C 96% 1016.9 hPa 0 mm - - -
1788354022 22.78° C 97% 1016.8 hPa 0 mm - - -
1788353120 22.22° C 98% 1016.9 hPa 0 mm - - -
1788352218 21.11° C 98% 1016.9 hPa 0 mm - - -
1788351317 20.56° C 97% 1016.9 hPa 0 mm - - -
1788350415 20.56° C 97% 1016.7 hPa 0 mm - - -
1788349514 20.56° C 97% 1016.4 hPa 0 mm - - -
1788348613 20.56° C 96% 1016.4 hPa 0 mm - - -
1788347712 20.56° C 96% 1016.2 hPa 0 mm - - -
1788346831 20.56° C 97% 1016.1 hPa 0 mm - - -
1788345915 20.56° C 96% 1015.9 hPa 0 mm - - -
1788345011 20.56° C 96% 1015.8 hPa 0 mm - - -
1788344105 20.56° C 96% 1015.8 hPa 0 mm - - -
1788343207 20.56° C 96% 1015.7 hPa 0 mm - - -
1788342302 20.56° C 96% 1015.4 hPa 0 mm - - -
1788341481 20.56° C 95% 1015.4 hPa 0 mm - - -
1788340620 20.56° C 95% 1015.4 hPa 0 mm - - -
1788339657 20.56° C 95% 1015.1 hPa 0 mm - - -
1788338758 20.56° C 95% 1015 hPa 0 mm - - -
1788337856 20.56° C 95% 1015 hPa 0 mm - - -
1788336954 20.56° C 95% 1014.9 hPa 0 mm - - -

* Rain latest hour (hover to see other rain measurements)
** Current wind speed in m/s (hover to see current wind gust speed)